Time;durP1;ratioP1;P1;durP2;ratioP2;P2;SDS_P1;SDS_P2;PMS_P1;PMS_P2;Temp;Humidity;BMP_temperature;BMP_pressure;BME280_temperature;BME280_humidity;BME280_pressure;Samples;Min_cycle;Max_cycle;Signal;HPM_P1;HPM_P2
2023/07/06 00:02:15;;;;;;;2.10;1.70;;;;;;;20.97;48.41;101425.31;5033032;28;20095;-78
2023/07/06 00:04:40;;;;;;;2.45;1.70;;;;;;;21.00;48.17;101424.97;5034704;28;20037;-77
2023/07/06 00:07:06;;;;;;;2.55;1.85;;;;;;;20.98;48.51;101427.78;5033593;28;20145;-77
2023/07/06 00:09:35;;;;;;;2.25;1.63;;;;;;;20.96;48.42;101428.97;5034171;28;20072;-76
2023/07/06 00:12:02;;;;;;;2.10;1.70;;;;;;;20.93;48.37;101422.19;5030199;28;20038;-78
2023/07/06 00:14:28;;;;;;;2.42;1.60;;;;;;;20.97;48.30;101434.09;5014718;28;20540;-77
2023/07/06 00:17:15;;;;;;;1.80;1.38;;;;;;;20.96;48.41;101431.59;5035511;28;20045;-78
2023/07/06 00:19:41;;;;;;;2.22;1.80;;;;;;;20.95;48.67;101437.91;5033779;28;20541;-77
2023/07/06 00:22:10;;;;;;;1.75;1.65;;;;;;;20.95;48.53;101430.78;5048776;28;20102;-78
2023/07/06 00:24:36;;;;;;;2.17;1.60;;;;;;;20.96;48.49;101432.44;5051663;28;20123;-78
2023/07/06 00:27:03;;;;;;;3.28;1.85;;;;;;;20.91;48.48;101440.06;5034895;28;20084;-78
2023/07/06 00:29:33;;;;;;;2.33;1.55;;;;;;;20.96;48.57;101442.19;5035101;28;20037;-78
2023/07/06 00:32:15;;;;;;;2.05;1.40;;;;;;;20.90;48.68;101437.59;5032943;28;20484;-78
2023/07/06 00:34:43;;;;;;;2.10;1.63;;;;;;;20.95;48.38;101451.97;5037081;28;20096;-78
2023/07/06 00:37:10;;;;;;;2.30;1.90;;;;;;;20.95;48.46;101446.66;5021988;28;20029;-78
2023/07/06 00:39:36;;;;;;;1.88;1.77;;;;;;;20.95;48.46;101441.38;5033064;28;20145;-78
2023/07/06 00:42:05;;;;;;;2.72;1.80;;;;;;;20.93;48.32;101443.38;5045312;28;20117;-78
2023/07/06 00:44:49;;;;;;;2.00;1.60;;;;;;;20.93;48.44;101443.38;5024627;28;20033;-78
2023/07/06 00:47:17;;;;;;;1.70;1.60;;;;;;;20.90;48.63;101441.06;5030211;28;21226;-77
2023/07/06 00:49:44;;;;;;;1.95;1.60;;;;;;;20.89;48.34;101444.72;5028687;28;20040;-78
2023/07/06 00:52:10;;;;;;;2.40;2.00;;;;;;;20.92;48.57;101448.84;5027434;28;20041;-78
2023/07/06 00:54:40;;;;;;;3.28;1.98;;;;;;;20.82;48.45;101438.44;5032196;28;20041;-77
2023/07/06 00:57:08;;;;;;;2.40;1.95;;;;;;;20.91;48.65;101445.38;5027392;28;20589;-77
2023/07/06 00:59:36;;;;;;;1.70;1.60;;;;;;;20.83;48.51;101436.66;5027158;28;20041;-77
2023/07/06 01:02:02;;;;;;;2.55;1.75;;;;;;;20.90;48.47;101450.84;5030598;28;20150;-78
2023/07/06 01:04:30;;;;;;;2.42;1.88;;;;;;;20.86;48.43;101444.25;5029591;28;20069;-78
2023/07/06 01:06:56;;;;;;;2.28;1.80;;;;;;;20.90;48.72;101453.50;5032883;28;20107;-77
2023/07/06 01:09:24;;;;;;;3.13;1.77;;;;;;;20.89;48.62;101457.97;5026954;28;20846;-78
2023/07/06 01:11:50;;;;;;;3.10;1.90;;;;;;;20.83;48.59;101452.53;5031658;28;20041;-78
2023/07/06 01:14:15;;;;;;;2.35;1.77;;;;;;;20.88;48.82;101466.06;5030965;28;20128;-78
2023/07/06 01:16:59;;;;;;;3.03;1.85;;;;;;;20.89;48.63;101459.78;5035320;28;20053;-78
2023/07/06 01:19:43;;;;;;;1.90;1.73;;;;;;;20.88;48.49;101472.19;5049450;28;20030;-77
2023/07/06 01:22:42;;;;;;;1.88;1.70;;;;;;;20.85;48.57;101461.94;5032594;28;20030;-78
2023/07/06 01:25:59;;;;;;;3.22;2.20;;;;;;;20.85;48.52;101469.06;5020966;28;20048;-78
2023/07/06 01:28:47;;;;;;;2.85;2.13;;;;;;;20.87;48.75;101470.53;5008560;28;20053;-77
2023/07/06 01:31:20;;;;;;;1.90;1.80;;;;;;;20.85;48.71;101467.25;5034088;28;20080;-78
2023/07/06 01:33:53;;;;;;;2.03;1.80;;;;;;;20.84;48.62;101467.41;5050273;28;20029;-77
2023/07/06 01:36:38;;;;;;;2.20;2.00;;;;;;;20.84;48.49;101467.41;5014552;28;20072;-78
2023/07/06 01:39:14;;;;;;;1.95;1.80;;;;;;;20.85;48.48;101472.53;5034450;28;20063;-78
2023/07/06 01:41:40;;;;;;;2.55;1.98;;;;;;;20.79;48.49;101458.16;5029113;28;20053;-77
2023/07/06 01:44:14;;;;;;;4.28;2.25;;;;;;;20.82;48.71;101467.56;5034105;28;20068;-77
2023/07/06 01:46:49;;;;;;;2.58;1.75;;;;;;;20.83;48.78;101463.94;5045418;28;20122;-77
2023/07/06 01:49:15;;;;;;;2.95;2.03;;;;;;;20.82;48.92;101462.25;5033714;28;20045;-76
2023/07/06 01:52:10;;;;;;;2.00;1.80;;;;;;;20.83;48.62;101466.59;5029878;28;20046;-78
2023/07/06 01:55:09;;;;;;;2.25;1.67;;;;;;;20.81;48.99;101464.09;5017728;28;20052;-77
2023/07/06 01:57:41;;;;;;;2.45;2.05;;;;;;;20.77;48.65;101460.13;5036563;28;20044;-78
2023/07/06 02:00:10;;;;;;;2.25;1.98;;;;;;;20.78;48.81;101453.03;5045171;28;20048;-77
2023/07/06 02:02:52;;;;;;;2.40;2.00;;;;;;;20.81;48.52;101464.09;5031303;28;20432;-78
2023/07/06 02:05:19;;;;;;;2.42;1.90;;;;;;;20.82;48.49;101456.97;5030962;28;20484;-78
2023/07/06 02:07:45;;;;;;;2.65;2.05;;;;;;;20.80;48.78;101458.97;5029202;28;20037;-78
2023/07/06 02:10:16;;;;;;;2.78;2.22;;;;;;;20.81;48.54;101468.56;5032335;28;20116;-78
2023/07/06 02:12:47;;;;;;;2.25;1.73;;;;;;;20.80;48.57;101459.78;5008604;28;20021;-78
2023/07/06 02:15:16;;;;;;;2.63;2.30;;;;;;;20.79;48.54;101463.44;5032159;28;20626;-79
2023/07/06 02:17:51;;;;;;;2.45;2.05;;;;;;;20.81;48.77;101458.78;5010862;28;20061;-77
2023/07/06 02:20:19;;;;;;;2.20;2.00;;;;;;;20.80;48.58;101461.63;5047053;28;20053;-78
2023/07/06 02:22:45;;;;;;;3.58;2.05;;;;;;;20.72;48.75;101449.25;5029143;28;20034;-78
2023/07/06 02:25:11;;;;;;;2.60;1.85;;;;;;;20.78;48.74;101453.03;5030608;28;20048;-78
2023/07/06 02:27:37;;;;;;;2.65;2.08;;;;;;;20.78;48.73;101463.59;5033390;28;20111;-78
2023/07/06 02:30:04;;;;;;;2.17;1.67;;;;;;;20.75;48.68;101456.84;5014493;28;20033;-78
2023/07/06 02:32:32;;;;;;;2.60;2.00;;;;;;;20.75;48.82;101458.66;5032267;28;20037;-78
2023/07/06 02:34:58;;;;;;;2.20;2.00;;;;;;;20.77;48.80;101469.91;5033790;28;20029;-78
2023/07/06 02:37:23;;;;;;;2.40;2.20;;;;;;;20.73;48.73;101469.41;5033261;28;20052;-78
2023/07/06 02:39:50;;;;;;;2.22;2.03;;;;;;;20.75;48.89;101466.59;5033694;28;20052;-78
2023/07/06 02:42:17;;;;;;;2.63;2.05;;;;;;;20.76;48.90;101471.72;5036119;28;20037;-78
2023/07/06 02:44:43;;;;;;;2.55;2.05;;;;;;;20.76;48.83;101478.84;5034692;28;20549;-78
2023/07/06 02:47:10;;;;;;;2.53;2.10;;;;;;;20.75;48.74;101470.06;5031976;28;20068;-78
2023/07/06 02:49:37;;;;;;;3.42;2.20;;;;;;;20.77;48.67;101468.06;5052073;28;20068;-78
2023/07/06 02:52:03;;;;;;;2.47;2.00;;;;;;;20.72;48.58;101470.41;5033535;28;20076;-78
2023/07/06 02:54:28;;;;;;;2.15;1.90;;;;;;;20.72;48.81;101466.94;5034787;28;20148;-78
2023/07/06 02:57:00;;;;;;;2.83;1.80;;;;;;;20.75;48.48;101475.38;5033802;28;20056;-79
2023/07/06 02:59:32;;;;;;;2.05;1.90;;;;;;;20.71;48.79;101468.78;5031969;28;20117;-78
2023/07/06 03:02:00;;;;;;;2.58;2.13;;;;;;;20.75;48.81;101482.47;5036592;28;20048;-79
2023/07/06 03:04:27;;;;;;;2.10;1.90;;;;;;;20.77;48.88;101483.13;5032950;28;20036;-78
2023/07/06 03:06:55;;;;;;;2.20;2.00;;;;;;;20.72;48.58;101467.78;5034519;28;20118;-78
2023/07/06 03:09:21;;;;;;;2.25;2.00;;;;;;;20.68;48.81;101477.06;5032105;28;20037;-78
2023/07/06 03:11:47;;;;;;;2.85;2.25;;;;;;;20.71;48.68;101484.66;5033554;28;20037;-79
2023/07/06 03:14:13;;;;;;;2.33;1.88;;;;;;;20.74;48.88;101478.19;5029937;28;20099;-78
2023/07/06 03:16:41;;;;;;;3.13;2.15;;;;;;;20.74;48.78;101491.41;5033160;28;20029;-79
2023/07/06 03:19:12;;;;;;;2.35;1.90;;;;;;;20.71;48.66;101483.81;5030935;28;20052;-79
2023/07/06 03:21:38;;;;;;;3.70;1.83;;;;;;;20.70;48.80;101487.47;5015400;28;20052;-78
2023/07/06 03:24:06;;;;;;;2.25;1.90;;;;;;;20.76;48.65;101494.72;5037406;28;20042;-79
2023/07/06 03:26:34;;;;;;;3.55;2.10;;;;;;;20.65;48.83;101481.88;5037369;28;20515;-79
2023/07/06 03:29:00;;;;;;;2.13;1.90;;;;;;;20.62;48.60;101475.06;5053096;28;20511;-78
2023/07/06 03:31:29;;;;;;;2.45;2.08;;;;;;;20.61;48.89;101481.34;5035466;28;20475;-79
2023/07/06 03:33:56;;;;;;;2.10;1.90;;;;;;;20.72;48.83;101498.72;5036740;28;20460;-78
2023/07/06 03:36:22;;;;;;;2.65;2.08;;;;;;;20.70;48.92;101498.88;5021608;28;20029;-79
2023/07/06 03:38:49;;;;;;;3.33;2.25;;;;;;;20.72;48.84;101501.34;5037738;28;20041;-78
2023/07/06 03:41:16;;;;;;;2.72;2.00;;;;;;;20.66;48.68;101489.63;5035580;28;20044;-79
2023/07/06 03:43:42;;;;;;;2.38;2.00;;;;;;;20.70;48.86;101498.88;5033408;28;20411;-79
2023/07/06 03:46:08;;;;;;;2.28;1.80;;;;;;;20.70;48.69;101498.88;5052331;28;20136;-79
2023/07/06 03:48:33;;;;;;;2.80;1.80;;;;;;;20.71;48.74;101495.25;5037184;28;20037;-79
2023/07/06 03:51:03;;;;;;;2.15;1.92;;;;;;;20.70;48.68;101506.00;5034073;28;20458;-79
2023/07/06 03:53:34;;;;;;;4.20;2.33;;;;;;;20.63;48.71;101486.47;5032331;28;20029;-79
2023/07/06 03:55:59;;;;;;;2.25;1.90;;;;;;;20.71;48.63;101505.00;5033239;28;20486;-78
2023/07/06 03:58:25;;;;;;;2.45;2.10;;;;;;;20.72;48.61;101506.66;5015359;28;20049;-78
2023/07/06 04:00:50;;;;;;;2.40;2.00;;;;;;;20.66;48.78;101502.03;5033184;28;20045;-78
2023/07/06 04:03:16;;;;;;;2.05;1.90;;;;;;;20.69;48.68;101507.00;5015285;28;20037;-78
2023/07/06 04:05:47;;;;;;;3.50;2.20;;;;;;;20.71;48.77;101512.94;5033790;28;20131;-78
2023/07/06 04:08:16;;;;;;;1.95;1.80;;;;;;;20.72;48.87;101509.28;5026133;28;20042;-78
2023/07/06 04:10:42;;;;;;;3.13;2.10;;;;;;;20.70;48.61;101516.56;5033469;28;20045;-78
2023/07/06 04:13:10;;;;;;;2.03;1.70;;;;;;;20.70;48.65;101511.28;5048632;28;20042;-78
2023/07/06 04:15:39;;;;;;;2.10;1.85;;;;;;;20.71;48.79;101515.59;5032968;28;20049;-78
2023/07/06 04:18:05;;;;;;;2.05;1.85;;;;;;;20.72;48.77;101522.53;5031651;28;20040;-78
2023/07/06 04:20:34;;;;;;;3.17;2.38;;;;;;;20.70;48.87;101521.88;5031686;28;20097;-78
2023/07/06 04:23:00;;;;;;;2.45;2.25;;;;;;;20.59;48.55;101499.22;5034134;28;20037;-78
2023/07/06 04:25:31;;;;;;;4.15;2.20;;;;;;;20.66;48.61;101509.97;5034096;28;20041;-78
2023/07/06 04:28:08;;;;;;;3.05;1.88;;;;;;;20.71;48.85;101515.59;5032981;28;20045;-78
2023/07/06 04:30:36;;;;;;;3.38;2.22;;;;;;;20.70;48.73;101513.94;5031207;28;20049;-79
2023/07/06 04:33:04;;;;;;;2.75;2.17;;;;;;;20.70;48.75;101517.41;5028975;28;20037;-79
2023/07/06 04:35:31;;;;;;;2.45;2.08;;;;;;;20.70;48.68;101520.06;5034856;28;20132;-78
2023/07/06 04:37:59;;;;;;;2.90;2.00;;;;;;;20.69;48.63;101514.94;5031009;28;20056;-79
2023/07/06 04:40:26;;;;;;;2.95;2.15;;;;;;;20.70;48.72;101524.53;5031117;28;20033;-78
2023/07/06 04:42:52;;;;;;;2.90;2.10;;;;;;;20.69;48.60;101530.81;5032904;28;20064;-79
2023/07/06 04:45:19;;;;;;;2.70;2.13;;;;;;;20.63;48.70;101524.34;5030381;28;20061;-78
2023/07/06 04:47:45;;;;;;;2.20;2.00;;;;;;;20.62;48.66;101522.69;5028243;28;20041;-79
2023/07/06 04:50:17;;;;;;;2.20;2.00;;;;;;;20.69;48.78;101536.94;5034008;28;20049;-78
2023/07/06 04:52:45;;;;;;;3.00;2.20;;;;;;;20.68;48.74;101540.56;5032550;28;20383;-78
2023/07/06 04:55:11;;;;;;;1.85;1.75;;;;;;;20.69;48.71;101531.63;5032616;28;20037;-79
2023/07/06 04:57:38;;;;;;;2.08;1.88;;;;;;;20.69;48.73;101539.56;5029900;28;20034;-78
2023/07/06 05:00:13;;;;;;;2.25;2.05;;;;;;;20.67;48.77;101540.75;5033758;28;20038;-78
2023/07/06 05:02:38;;;;;;;2.03;1.90;;;;;;;20.68;48.89;101545.03;5034951;28;20115;-78
2023/07/06 05:05:05;;;;;;;2.30;2.10;;;;;;;20.68;48.81;101539.75;5025905;28;20132;-79
2023/07/06 05:07:32;;;;;;;2.95;2.25;;;;;;;20.69;48.71;101539.56;5028148;28;20048;-78
2023/07/06 05:09:57;;;;;;;2.97;2.00;;;;;;;20.62;48.84;101541.22;5034503;28;20492;-79
2023/07/06 05:12:24;;;;;;;3.13;2.17;;;;;;;20.68;48.59;101545.84;5030981;28;20110;-78
2023/07/06 05:14:52;;;;;;;2.20;1.90;;;;;;;20.65;48.78;101538.25;5031800;28;20037;-79
2023/07/06 05:17:17;;;;;;;2.63;1.90;;;;;;;20.64;48.85;101538.41;5032002;28;20388;-78
2023/07/06 05:19:43;;;;;;;2.83;2.10;;;;;;;20.62;48.50;101532.47;5032795;28;20048;-79
2023/07/06 05:22:08;;;;;;;3.15;2.22;;;;;;;20.71;48.63;101544.69;5033865;28;20037;-78
2023/07/06 05:24:34;;;;;;;2.33;1.83;;;;;;;20.62;48.83;101530.63;5034036;28;20041;-79
2023/07/06 05:26:59;;;;;;;2.25;1.90;;;;;;;20.71;48.75;101545.53;5030747;28;20435;-78
2023/07/06 05:29:24;;;;;;;2.13;1.92;;;;;;;20.71;48.63;101536.75;5033662;28;20049;-78
2023/07/06 05:31:50;;;;;;;2.35;1.98;;;;;;;20.67;48.56;101540.75;5032128;28;20033;-78
2023/07/06 05:34:16;;;;;;;2.90;2.22;;;;;;;20.72;48.81;101549.81;5033753;28;20037;-78
2023/07/06 05:36:41;;;;;;;2.20;2.00;;;;;;;20.72;48.74;101549.00;5046998;28;20037;-78
2023/07/06 05:39:07;;;;;;;2.38;2.10;;;;;;;20.70;48.62;101546.53;5032739;28;20045;-78
2023/07/06 05:41:33;;;;;;;3.05;2.50;;;;;;;20.73;48.69;101548.00;5032910;28;20103;-78
2023/07/06 05:43:59;;;;;;;2.85;2.10;;;;;;;20.70;48.55;101535.94;5033216;28;20030;-79
2023/07/06 05:46:25;;;;;;;2.17;1.98;;;;;;;20.74;48.78;101544.34;5034021;28;20111;-78
2023/07/06 05:48:53;;;;;;;3.42;2.10;;;;;;;20.65;48.76;101532.97;5036092;28;20038;-78
2023/07/06 05:51:19;;;;;;;3.58;1.95;;;;;;;20.70;48.60;101546.53;5045699;28;20034;-77
2023/07/06 05:53:46;;;;;;;2.47;2.10;;;;;;;20.70;48.63;101543.03;5016106;28;20485;-78
2023/07/06 05:56:13;;;;;;;2.65;2.20;;;;;;;20.74;48.49;101550.47;5031671;28;20112;-78
2023/07/06 05:58:38;;;;;;;2.05;1.85;;;;;;;20.77;48.48;101554.59;5030682;28;20089;-78
2023/07/06 06:01:04;;;;;;;2.30;2.10;;;;;;;20.74;48.53;101547.00;5031655;28;20030;-78
2023/07/06 06:03:30;;;;;;;3.25;1.80;;;;;;;20.77;48.58;101555.41;5030052;28;20045;-78
2023/07/06 06:05:55;;;;;;;2.67;2.17;;;;;;;20.65;48.46;101535.63;5032705;28;20071;-80
2023/07/06 06:08:21;;;;;;;2.15;1.70;;;;;;;20.75;48.66;101556.59;5025360;28;20037;-79
2023/07/06 06:10:50;;;;;;;2.20;2.00;;;;;;;20.77;48.54;101562.53;5027850;28;20038;-79
2023/07/06 06:13:16;;;;;;;2.70;2.10;;;;;;;20.77;48.34;101559.91;5032863;28;20041;-79
2023/07/06 06:15:42;;;;;;;2.97;2.10;;;;;;;20.75;48.68;101560.06;5025554;28;20046;-79
2023/07/06 06:18:09;;;;;;;2.55;1.90;;;;;;;20.79;48.35;101564.03;5029161;28;20045;-78
2023/07/06 06:20:37;;;;;;;3.03;2.10;;;;;;;20.80;48.46;101570.97;5029187;28;20045;-78
2023/07/06 06:23:07;;;;;;;2.00;1.77;;;;;;;20.72;48.54;101568.34;5033791;28;20064;-78
2023/07/06 06:25:35;;;;;;;2.88;2.08;;;;;;;20.82;48.39;101586.69;5026657;28;20093;-78
2023/07/06 06:28:00;;;;;;;4.88;2.00;;;;;;;20.75;48.37;101577.75;5017300;28;20053;-77
2023/07/06 06:30:26;;;;;;;2.78;1.95;;;;;;;20.81;48.37;101587.66;5046086;28;20044;-78
2023/07/06 06:32:52;;;;;;;2.30;2.10;;;;;;;20.78;48.59;101585.38;5029337;28;20038;-79
2023/07/06 06:35:23;;;;;;;2.28;2.08;;;;;;;20.82;48.48;101594.63;5033099;28;20053;-77
2023/07/06 06:37:49;;;;;;;2.08;1.80;;;;;;;20.86;48.22;101603.06;5031303;28;20049;-77
2023/07/06 06:40:15;;;;;;;2.40;2.17;;;;;;;20.88;48.35;101606.38;5025893;28;20038;-77
2023/07/06 06:42:41;;;;;;;2.50;2.13;;;;;;;20.83;48.40;101592.81;5028486;28;20118;-79
2023/07/06 06:45:07;;;;;;;3.10;2.28;;;;;;;20.87;48.13;101604.72;5010514;28;20410;-78
2023/07/06 06:47:33;;;;;;;4.00;2.15;;;;;;;20.92;48.09;101616.47;5026186;28;20076;-78
2023/07/06 06:49:59;;;;;;;2.63;1.90;;;;;;;20.89;48.15;101598.25;5033199;28;20538;-80
2023/07/06 06:52:27;;;;;;;1.88;1.77;;;;;;;20.95;48.20;101594.94;5027219;28;20042;-79
2023/07/06 06:54:53;;;;;;;3.40;2.10;;;;;;;21.02;48.19;101605.69;5027705;28;20607;-79
2023/07/06 06:57:20;;;;;;;2.30;1.75;;;;;;;21.01;47.99;101602.22;5035731;28;20041;-78
2023/07/06 06:59:47;;;;;;;3.17;2.00;;;;;;;21.09;47.74;101606.66;5047751;28;20045;-78
2023/07/06 07:02:14;;;;;;;2.25;1.95;;;;;;;21.12;47.85;101604.50;5026160;28;20037;-81
2023/07/06 07:04:39;;;;;;;3.33;1.85;;;;;;;21.11;47.81;101600.19;5032282;28;20045;-79
2023/07/06 07:07:06;;;;;;;2.17;1.80;;;;;;;21.20;47.86;101608.97;5030812;28;20033;-79
2023/07/06 07:09:32;;;;;;;2.90;2.00;;;;;;;21.25;47.89;101616.44;5029226;28;20741;-79
2023/07/06 07:11:58;;;;;;;2.10;1.90;;;;;;;21.24;47.80;101606.78;5028796;28;20473;-78
2023/07/06 07:14:24;;;;;;;2.20;1.88;;;;;;;21.32;47.72;101618.22;5033393;28;20047;-79
2023/07/06 07:16:50;;;;;;;2.80;2.15;;;;;;;21.35;47.40;101614.38;5028458;28;20363;-78
2023/07/06 07:19:16;;;;;;;3.53;2.13;;;;;;;21.39;47.64;101624.50;5025129;28;20601;-80
2023/07/06 07:21:41;;;;;;;2.65;1.80;;;;;;;21.40;47.72;101620.03;5028570;28;20121;-80
2023/07/06 07:24:08;;;;;;;3.83;1.77;;;;;;;21.46;47.72;101624.63;5029935;28;20420;-78
2023/07/06 07:26:34;;;;;;;3.90;2.47;;;;;;;21.49;47.27;101618.16;5032314;28;20065;-80
2023/07/06 07:29:01;;;;;;;2.53;1.80;;;;;;;21.42;47.71;101604.78;5017125;28;20049;-81
2023/07/06 07:31:27;;;;;;;3.85;1.92;;;;;;;21.55;47.54;101630.75;5035355;28;20119;-80
2023/07/06 07:33:54;;;;;;;2.28;2.08;;;;;;;21.58;47.38;101619.78;5033244;28;20272;-80
2023/07/06 07:36:20;;;;;;;1.83;1.67;;;;;;;21.61;47.50;101627.41;5036871;28;20437;-80
2023/07/06 07:38:47;;;;;;;2.22;1.77;;;;;;;21.62;47.31;101618.44;5035602;28;20038;-80
2023/07/06 07:41:18;;;;;;;3.17;1.80;;;;;;;21.59;47.53;101616.16;5049882;28;20052;-80
2023/07/06 07:43:46;;;;;;;3.10;1.75;;;;;;;21.64;47.35;101627.88;5035203;28;20037;-80
2023/07/06 07:46:14;;;;;;;4.60;2.15;;;;;;;21.68;47.43;101631.81;5018791;28;20049;-79
2023/07/06 07:48:45;;;;;;;3.40;1.83;;;;;;;21.68;47.68;101625.69;5034466;28;20056;-79
2023/07/06 07:51:13;;;;;;;5.18;2.28;;;;;;;21.70;47.53;101629.81;5029896;28;20065;-80
2023/07/06 07:53:40;;;;;;;4.10;1.90;;;;;;;21.69;47.60;101633.47;5035275;28;20056;-79
2023/07/06 07:56:07;;;;;;;4.43;2.58;;;;;;;21.69;47.39;101628.16;5031512;28;20207;-79
2023/07/06 07:58:34;;;;;;;4.03;2.10;;;;;;;21.67;47.38;101627.53;5016823;28;20409;-79
2023/07/06 08:01:01;;;;;;;2.08;1.60;;;;;;;21.76;47.41;101646.88;5029059;28;20605;-79
2023/07/06 08:03:28;;;;;;;6.15;2.13;;;;;;;21.78;47.44;101641.41;5047725;28;20041;-78
2023/07/06 08:05:59;;;;;;;3.75;2.13;;;;;;;21.82;47.26;101637.41;5028732;28;20395;-77
2023/07/06 08:08:25;;;;;;;7.70;2.13;;;;;;;21.76;47.42;101623.03;5033818;28;20075;-79
2023/07/06 08:10:55;;;;;;;6.28;2.10;;;;;;;21.87;47.46;101640.34;5036747;28;21393;-78
2023/07/06 08:13:21;;;;;;;;;;;;;;;21.90;47.32;101640.84;5033941;28;20515;-78
2023/07/06 08:15:47;;;;;;;4.53;2.67;;;;;;;21.80;47.16;101623.50;5036380;28;19920;-79
2023/07/06 08:18:15;;;;;;;3.08;2.08;;;;;;;21.94;47.21;101644.81;5035194;28;20065;-78
2023/07/06 08:20:43;;;;;;;4.65;2.20;;;;;;;21.95;47.00;101637.69;5036460;28;20498;-77
2023/07/06 08:23:12;;;;;;;6.18;2.45;;;;;;;21.90;47.14;101632.91;5034047;28;20061;-78
2023/07/06 08:25:40;;;;;;;3.25;2.20;;;;;;;21.95;47.09;101643.81;5013797;28;20044;-78
2023/07/06 08:28:10;;;;;;;4.72;2.28;;;;;;;21.99;46.82;101639.78;5034602;28;20029;-78
2023/07/06 08:30:38;;;;;;;4.88;2.20;;;;;;;22.02;46.78;101643.91;5030591;28;20037;-78
2023/07/06 08:33:04;;;;;;;3.28;2.35;;;;;;;22.00;47.15;101648.56;5033933;28;20033;-78
2023/07/06 08:35:30;;;;;;;3.78;2.45;;;;;;;21.97;47.05;101649.75;5028479;28;20114;-78
2023/07/06 08:37:57;;;;;;;4.45;2.25;;;;;;;21.94;47.14;101644.81;5030225;28;20058;-78
2023/07/06 08:40:29;;;;;;;4.72;2.40;;;;;;;22.01;46.76;101653.72;5035162;28;20044;-78
2023/07/06 08:42:56;;;;;;;2.75;1.85;;;;;;;22.02;46.97;101646.56;5031617;28;20041;-78
2023/07/06 08:45:39;;;;;;;5.10;2.65;;;;;;;22.08;47.04;101658.34;5032986;28;20046;-78
2023/07/06 08:48:06;;;;;;;4.43;1.83;;;;;;;22.00;46.70;101643.28;5026824;28;20072;-78
2023/07/06 08:50:36;;;;;;;2.55;1.95;;;;;;;22.06;46.37;101639.13;5031257;28;20022;-77
2023/07/06 08:53:02;;;;;;;;;;;;;;;22.10;46.80;101664.31;5031218;28;20067;-77
2023/07/06 08:55:30;;;;;;;2.95;1.85;;;;;;;22.06;46.68;101657.69;5048935;28;19959;-77
2023/07/06 08:57:56;;;;;;;4.47;1.95;;;;;;;22.01;46.73;101651.06;5027536;28;20030;-78
2023/07/06 09:00:27;;;;;;;2.70;1.90;;;;;;;22.07;46.60;101659.34;5034510;28;20044;-78
2023/07/06 09:02:55;;;;;;;4.90;1.92;;;;;;;22.08;46.87;101661.81;5031992;28;20084;-76
2023/07/06 09:05:22;;;;;;;1.80;1.70;;;;;;;22.05;46.81;101677.25;5031499;28;20095;-78
2023/07/06 09:07:48;;;;;;;3.50;2.17;;;;;;;22.09;46.56;101667.97;5034520;28;20084;-78
2023/07/06 09:10:21;;;;;;;3.20;2.00;;;;;;;22.08;46.48;101663.63;5027984;28;20101;-78
2023/07/06 09:12:47;;;;;;;3.80;2.20;;;;;;;22.04;46.33;101663.13;5033323;28;20121;-78
2023/07/06 09:15:18;;;;;;;4.40;2.00;;;;;;;22.06;46.50;101657.69;5028700;28;20045;-78
2023/07/06 09:17:50;;;;;;;2.85;1.95;;;;;;;22.11;46.74;101668.63;5033799;28;20032;-78
2023/07/06 09:20:17;;;;;;;3.78;1.95;;;;;;;22.13;46.73;101670.09;5035097;28;20045;-78
2023/07/06 09:22:44;;;;;;;4.55;2.25;;;;;;;21.99;46.79;101652.22;5032347;28;20068;-78
2023/07/06 09:25:26;;;;;;;4.38;2.15;;;;;;;22.07;46.65;101678.72;5031134;28;20045;-78
2023/07/06 09:27:55;;;;;;;2.92;1.98;;;;;;;21.99;46.94;101676.09;5023140;28;20041;-78
2023/07/06 09:30:29;;;;;;;3.08;1.90;;;;;;;22.04;46.76;101681.69;5045864;28;20037;-78
2023/07/06 09:33:18;;;;;;;3.75;2.13;;;;;;;22.01;46.68;101687.34;5049687;28;20040;-77
2023/07/06 09:35:45;;;;;;;4.13;1.80;;;;;;;22.03;46.89;101693.31;5031092;28;20032;-78
2023/07/06 09:38:14;;;;;;;1.85;1.75;;;;;;;22.05;46.78;101686.03;5045326;28;20106;-78
2023/07/06 09:40:43;;;;;;;3.95;2.15;;;;;;;22.01;46.76;101679.41;5045917;28;20064;-78
2023/07/06 09:43:37;;;;;;;2.25;1.90;;;;;;;22.04;46.82;101702.91;5034427;28;20463;-78
2023/07/06 09:46:03;;;;;;;3.88;1.88;;;;;;;21.99;47.00;101700.78;5042105;28;20050;-78
2023/07/06 09:48:28;;;;;;;2.47;1.80;;;;;;;21.95;47.04;101698.66;5032999;28;20045;-78
2023/07/06 09:50:59;;;;;;;2.88;2.00;;;;;;;21.96;46.72;101706.44;5030133;28;20132;-77
2023/07/06 09:53:34;;;;;;;2.55;1.92;;;;;;;21.98;46.95;101707.09;5030993;28;20068;-78
2023/07/06 09:56:02;;;;;;;2.55;1.75;;;;;;;21.97;47.08;101716.06;5034837;28;20038;-79
2023/07/06 09:58:33;;;;;;;3.67;1.77;;;;;;;21.98;46.72;101708.94;5030044;28;20041;-78
2023/07/06 10:01:10;;;;;;;2.28;1.90;;;;;;;21.98;46.72;101711.56;5035126;28;20029;-79
2023/07/06 10:03:51;;;;;;;3.08;2.13;;;;;;;21.98;46.91;101714.22;5034524;28;20038;-78
2023/07/06 10:06:19;;;;;;;2.85;1.88;;;;;;;22.00;46.79;101710.41;5032825;28;20116;-78
2023/07/06 10:08:57;;;;;;;2.55;1.88;;;;;;;21.91;47.06;101706.16;5032248;28;20029;-78
2023/07/06 10:11:42;;;;;;;2.50;1.77;;;;;;;21.98;46.80;101714.22;5027341;28;20044;-78
2023/07/06 10:14:22;;;;;;;1.95;1.80;;;;;;;21.97;46.79;101716.06;5028713;28;20815;-78
2023/07/06 10:17:00;;;;;;;2.88;1.95;;;;;;;21.89;47.18;101709.94;5030703;28;20558;-78
2023/07/06 10:20:06;;;;;;;3.15;1.60;;;;;;;21.95;46.73;101723.38;5025884;28;20411;-78
2023/07/06 10:22:55;;;;;;;3.55;2.05;;;;;;;21.96;46.83;101732.97;5031599;28;20501;-78
2023/07/06 10:25:51;;;;;;;2.10;1.63;;;;;;;21.98;46.70;101732.78;5030614;28;20491;-78
2023/07/06 10:28:21;;;;;;;2.85;1.70;;;;;;;21.98;46.68;101720.34;5030275;28;20042;-78
2023/07/06 10:30:49;;;;;;;;;;;;;;;21.99;46.85;101727.31;5033033;28;20653;-78
2023/07/06 10:33:44;;;;;;;2.55;2.10;;;;;;;21.99;46.91;101735.28;5031985;28;20069;-78
2023/07/06 10:36:12;;;;;;;3.08;1.80;;;;;;;21.99;46.73;101735.28;5029914;28;20085;-78
2023/07/06 10:38:37;;;;;;;3.08;1.77;;;;;;;21.94;46.47;101718.22;5029886;28;20052;-78
2023/07/06 10:41:12;;;;;;;2.22;1.83;;;;;;;21.99;46.55;101734.44;5033376;28;20847;-79
2023/07/06 10:43:42;;;;;;;2.55;1.63;;;;;;;21.98;46.79;101728.31;5029045;28;20041;-78
2023/07/06 10:46:35;;;;;;;3.15;2.08;;;;;;;21.97;46.67;101726.66;5031675;28;20116;-79
2023/07/06 10:49:26;;;;;;;4.88;1.80;;;;;;;21.93;46.96;101735.16;5025749;28;20050;-78
2023/07/06 10:51:55;;;;;;;3.75;2.08;;;;;;;21.93;46.66;101725.38;5026327;28;20547;-78
2023/07/06 10:54:21;;;;;;;3.23;1.97;;;;;;;21.98;46.85;101735.44;5046366;28;20598;-78
2023/07/06 10:57:05;;;;;;;2.60;1.67;;;;;;;21.97;46.67;101731.16;5048989;28;20480;-78
2023/07/06 10:59:47;;;;;;;2.42;1.85;;;;;;;21.99;46.64;101734.44;5034686;28;20407;-78
2023/07/06 11:02:32;;;;;;;2.75;1.90;;;;;;;21.92;46.40;101715.75;5053454;28;20033;-79
2023/07/06 11:05:28;;;;;;;2.03;1.50;;;;;;;21.98;46.67;101738.09;5031366;28;20162;-79
2023/07/06 11:07:57;;;;;;;3.53;1.80;;;;;;;21.97;46.67;101731.16;5030926;28;20033;-79
2023/07/06 11:10:25;;;;;;;2.35;1.83;;;;;;;21.94;46.63;101728.84;5035326;28;20589;-79
2023/07/06 11:13:04;;;;;;;3.03;1.70;;;;;;;21.99;46.73;101735.28;5041770;28;20180;-78
2023/07/06 11:15:32;;;;;;;3.25;2.03;;;;;;;21.98;46.67;101736.28;5031422;28;20033;-79
2023/07/06 11:18:22;;;;;;;4.55;2.35;;;;;;;21.99;46.54;101745.06;5045349;28;20254;-79
2023/07/06 11:21:06;;;;;;;2.05;1.60;;;;;;;21.97;46.56;101752.34;5029601;28;20760;-79
2023/07/06 11:23:46;;;;;;;2.25;2.03;;;;;;;21.94;46.67;101744.75;5016453;28;20068;-79
2023/07/06 11:26:40;;;;;;;5.82;1.80;;;;;;;21.97;46.36;101755.00;5036908;28;20452;-78
2023/07/06 11:29:08;;;;;;;2.95;1.70;;;;;;;21.97;46.37;101753.19;5031245;28;20060;-78
2023/07/06 11:31:54;;;;;;;3.50;1.88;;;;;;;21.96;46.67;101751.53;5034734;28;20037;-80
2023/07/06 11:34:34;;;;;;;2.42;1.95;;;;;;;22.01;46.77;101753.66;5032821;28;20424;-78
2023/07/06 11:37:29;;;;;;;2.65;1.52;;;;;;;22.01;46.41;101754.50;5033208;28;20025;-77
2023/07/06 11:40:08;;;;;;;2.67;1.80;;;;;;;22.02;46.67;101757.97;4999091;28;20046;-78
2023/07/06 11:42:50;;;;;;;2.27;1.60;;;;;;;21.99;46.59;101750.34;5050383;28;20036;-76